Time;durP1;ratioP1;P1;durP2;ratioP2;P2;SDS_P1;SDS_P2;PMS_P1;PMS_P2;Temp;Humidity;BMP_temperature;BMP_pressure;BME280_temperature;BME280_humidity;BME280_pressure;Samples;Min_cycle;Max_cycle;Signal;HPM_P1;HPM_P2
2022/02/02 00:02:47;;;;;;;1.83;0.30;;;;;;;3.23;75.57;96458.25;10035976;29;20511;-78
2022/02/02 00:08:18;;;;;;;2.25;0.30;;;;;;;3.30;76.09;96451.88;10024636;29;20129;-78
2022/02/02 00:19:20;;;;;;;4.05;0.70;;;;;;;3.47;75.47;96460.03;10025069;29;20385;-78
2022/02/02 00:30:04;;;;;;;2.13;0.28;;;;;;;3.58;75.54;96453.97;10034444;29;20124;-78
2022/02/02 00:35:30;;;;;;;2.25;0.30;;;;;;;3.62;75.30;96450.78;10034947;29;20125;-78
2022/02/02 00:40:52;;;;;;;1.83;0.43;;;;;;;3.61;75.38;96458.31;10022873;29;20049;-78
2022/02/02 00:46:15;;;;;;;2.38;0.50;;;;;;;3.61;75.56;96458.31;10034423;29;20045;-78
2022/02/02 00:51:41;;;;;;;2.15;0.38;;;;;;;3.63;75.61;96474.31;10033938;29;20124;-78
2022/02/02 00:57:03;;;;;;;2.00;0.40;;;;;;;3.66;75.06;96471.09;10022140;29;20171;-78
2022/02/02 01:02:24;;;;;;;2.67;0.40;;;;;;;3.66;75.49;96481.41;10021204;29;20069;-78
2022/02/02 01:14:09;;;;;;;2.20;0.47;;;;;;;3.77;75.00;96491.91;10035366;29;20101;-78
2022/02/02 01:30:13;;;;;;;1.13;0.30;;;;;;;3.96;74.09;96496.72;10037674;29;20136;-78
2022/02/02 01:35:34;;;;;;;2.10;0.47;;;;;;;3.97;74.02;96476.09;10019641;29;20041;-78
2022/02/02 01:41:01;;;;;;;2.60;0.50;;;;;;;3.94;74.18;96497.28;10032055;29;20124;-78
2022/02/02 01:46:24;;;;;;;4.43;0.40;;;;;;;3.82;73.90;96501.19;10020873;29;20057;-79
2022/02/02 01:52:17;;;;;;;2.80;0.52;;;;;;;3.88;74.06;96501.66;10020367;29;20051;-78
2022/02/02 02:03:09;;;;;;;4.38;0.68;;;;;;;4.10;73.15;96506.03;10023597;29;20041;-78
2022/02/02 02:08:30;;;;;;;3.83;0.85;;;;;;;4.19;73.77;96496.28;10019294;29;20049;-78
2022/02/02 02:19:30;;;;;;;6.40;1.05;;;;;;;4.27;73.38;96536.25;10033680;29;20049;-78
2022/02/02 02:24:53;;;;;;;6.85;0.90;;;;;;;4.37;73.25;96527.25;10031947;29;20074;-78
2022/02/02 02:30:25;;;;;;;4.53;1.08;;;;;;;4.39;72.70;96527.38;10005916;29;20049;-78
2022/02/02 02:58:36;;;;;;;6.82;2.15;;;;;;;4.51;71.88;96531.00;10042773;29;20046;-78
2022/02/02 03:32:49;;;;;;;2.97;0.50;;;;;;;4.47;71.50;96514.16;10041666;29;20053;-78
2022/02/02 03:54:56;;;;;;;2.33;0.50;;;;;;;4.47;71.43;96550.06;10051080;29;20051;-78
2022/02/02 04:00:26;;;;;;;3.22;0.47;;;;;;;4.48;71.18;96555.03;10037494;29;20056;-78
2022/02/02 04:05:51;;;;;;;3.60;0.75;;;;;;;4.48;71.27;96570.88;10025199;29;20055;-78
2022/02/02 04:11:16;;;;;;;;;;;;;;;4.47;70.63;96561.13;10024041;29;20041;-79
2022/02/02 04:39:16;;;;;;;3.72;0.70;;;;;;;4.49;68.87;96566.78;10039167;29;20457;-78
2022/02/02 04:56:10;;;;;;;6.75;0.98;;;;;;;4.61;68.01;96567.66;10036934;29;20465;-78
2022/02/02 05:07:24;;;;;;;5.85;1.00;;;;;;;4.52;67.97;96571.16;10038185;29;20053;-79
2022/02/02 05:52:34;;;;;;;8.57;1.45;;;;;;;4.79;66.15;96621.47;10007556;29;20124;-79
2022/02/02 05:57:56;;;;;;;7.15;1.58;;;;;;;4.83;66.35;96634.88;10044591;29;20450;-79
2022/02/02 06:03:19;;;;;;;8.77;1.48;;;;;;;4.83;66.47;96637.66;10019391;29;20046;-78
2022/02/02 06:08:45;;;;;;;7.55;1.48;;;;;;;4.82;66.47;96664.53;10006365;29;20398;-79
2022/02/02 06:14:06;;;;;;;6.40;1.02;;;;;;;4.70;67.63;96674.72;10003932;29;20071;-79
2022/02/02 06:19:28;;;;;;;5.13;0.80;;;;;;;4.48;67.83;96689.69;10019416;29;20053;-78
2022/02/02 06:25:07;;;;;;;2.47;0.60;;;;;;;4.25;68.18;96692.84;10021355;29;20049;-79
2022/02/02 06:30:29;;;;;;;3.47;0.38;;;;;;;4.04;68.58;96693.34;10053331;29;20049;-79
2022/02/02 06:35:58;;;;;;;1.10;0.20;;;;;;;3.95;68.51;96694.03;10039780;29;20136;-78
2022/02/02 06:41:19;;;;;;;1.35;0.40;;;;;;;3.88;68.27;96700.44;10027203;29;20050;-78
2022/02/02 06:46:40;;;;;;;1.95;0.30;;;;;;;3.84;68.45;96722.19;9998392;29;20068;-78
2022/02/02 06:52:06;;;;;;;1.98;0.45;;;;;;;3.84;69.00;96724.94;10025641;29;20050;-79
2022/02/02 06:58:03;;;;;;;3.47;0.50;;;;;;;3.80;68.57;96725.38;10025714;29;20052;-78
2022/02/02 07:04:29;;;;;;;1.13;0.20;;;;;;;3.86;68.49;96741.66;10050215;29;20054;-78
2022/02/02 07:09:28;;;;;;;1.80;0.30;;;;;;;3.90;69.21;96736.47;10042581;29;20445;-78
2022/02/02 07:15:18;;;;;;;0.68;0.30;;;;;;;4.10;69.10;96742.81;10039975;29;20045;-79
2022/02/02 07:37:35;;;;;;;0.95;0.30;;;;;;;6.32;66.24;96771.22;10035492;29;20068;-78
2022/02/02 07:42:58;;;;;;;2.70;0.35;;;;;;;9.76;63.66;96774.91;10027363;29;20129;-79
2022/02/02 07:48:19;;;;;;;1.60;0.32;;;;;;;11.76;57.65;96783.72;10006145;29;20412;-79
2022/02/02 07:53:44;;;;;;;4.32;0.40;;;;;;;10.41;57.45;96792.34;10036435;29;20045;-78
2022/02/02 07:59:36;;;;;;;;;;;;;;;9.03;56.31;96787.47;10030115;29;20060;-79
2022/02/02 08:04:57;;;;;;;2.92;0.50;;;;;;;10.58;58.36;96797.44;10038335;29;20331;-78
2022/02/02 08:10:21;;;;;;;3.80;0.50;;;;;;;12.62;56.38;96790.44;10024978;29;20128;-76
2022/02/02 08:15:49;;;;;;;3.25;0.50;;;;;;;11.16;52.77;96807.38;10039081;29;20046;-76
2022/02/02 08:21:11;;;;;;;4.10;0.60;;;;;;;9.18;55.60;96815.53;10025562;29;20518;-76
2022/02/02 08:26:33;;;;;;;3.38;0.60;;;;;;;7.89;58.05;96816.75;10035592;29;20045;-76
2022/02/02 08:31:55;;;;;;;3.03;0.80;;;;;;;9.65;56.00;96842.53;10023154;29;20045;-76
2022/02/02 08:37:16;;;;;;;3.28;0.50;;;;;;;8.90;56.76;96872.34;10009886;29;20069;-76
2022/02/02 08:42:38;;;;;;;2.40;0.40;;;;;;;8.12;58.26;96855.03;10002929;29;20391;-76
2022/02/02 08:48:04;;;;;;;4.07;0.70;;;;;;;9.73;55.83;96901.50;10031232;29;20048;-76
2022/02/02 08:58:48;;;;;;;2.28;0.30;;;;;;;7.44;57.44;96916.69;10021364;29;20458;-76
2022/02/02 09:31:27;;;;;;;5.50;0.88;;;;;;;6.10;59.62;96921.38;10034296;29;20068;-80
2022/02/02 09:37:27;;;;;;;5.53;1.40;;;;;;;8.54;56.66;96921.66;10041923;29;20068;-76
2022/02/02 09:42:56;;;;;;;6.35;1.30;;;;;;;10.10;54.51;96948.91;9997140;29;20041;-76
2022/02/02 10:05:13;;;;;;;6.93;0.98;;;;;;;12.52;44.98;96960.75;10011520;29;20052;-74
2022/02/02 10:16:03;;;;;;;5.75;0.82;;;;;;;15.87;41.64;96987.88;9993157;29;20057;-77
2022/02/02 10:21:31;;;;;;;4.18;0.80;;;;;;;13.25;43.59;96989.38;9995749;29;20053;-76
2022/02/02 10:26:55;;;;;;;4.18;0.80;;;;;;;13.39;43.53;96983.66;9984059;29;20500;-77
2022/02/02 10:32:41;;;;;;;5.05;0.70;;;;;;;13.91;41.54;96978.91;9994732;29;20042;-77
2022/02/02 10:38:08;;;;;;;4.03;0.90;;;;;;;11.97;43.05;97008.47;9995613;29;20418;-78
2022/02/02 10:43:35;;;;;;;3.45;0.82;;;;;;;10.34;45.00;96990.72;9996005;29;20050;-76
2022/02/02 10:55:36;;;;;;;5.30;0.85;;;;;;;10.07;47.10;97005.91;9997957;29;20404;-78
2022/02/02 11:00:55;;;;;;;5.32;1.08;;;;;;;10.24;46.03;96999.22;9997830;29;20448;-75
2022/02/02 11:06:38;;;;;;;8.90;1.17;;;;;;;10.22;45.95;96999.81;9989277;29;20405;-76
2022/02/02 11:11:59;;;;;;;4.95;0.93;;;;;;;11.17;45.60;97012.00;10010301;29;20540;-77
2022/02/02 11:17:31;;;;;;;7.93;1.33;;;;;;;10.47;44.63;97020.72;9988504;29;20485;-77
2022/02/02 11:22:55;;;;;;;4.60;1.45;;;;;;;9.74;45.25;97039.53;10004412;29;20505;-77
2022/02/02 11:28:36;;;;;;;9.38;1.40;;;;;;;9.31;46.62;97028.63;10006414;29;20046;-77
2022/02/02 11:33:59;;;;;;;3.78;0.80;;;;;;;9.28;46.45;97046.56;10018588;29;20053;-78
2022/02/02 11:39:34;;;;;;;7.63;1.85;;;;;;;8.82;47.05;97059.03;10012406;29;20057;-77
2022/02/02 11:45:06;;;;;;;7.70;1.10;;;;;;;9.54;46.69;97057.81;10031658;29;20049;-77
2022/02/02 11:50:49;;;;;;;3.58;0.90;;;;;;;9.59;45.70;97067.88;10016311;29;20109;-78
2022/02/02 11:56:09;;;;;;;7.07;0.82;;;;;;;9.43;45.72;97060.00;10006785;29;20041;-76
2022/02/02 12:01:44;;;;;;;4.32;0.90;;;;;;;10.06;45.23;97056.72;10025318;29;20046;-76
2022/02/02 12:07:13;;;;;;;4.03;0.70;;;;;;;9.75;44.65;97083.53;10021341;29;20045;-78
2022/02/02 12:57:25;;;;;;;2.53;0.50;;;;;;;10.22;45.45;97169.22;10021567;29;20049;-76
2022/02/02 13:02:47;;;;;;;3.10;0.60;;;;;;;10.37;45.67;97179.91;10029146;29;20037;-76
2022/02/02 13:08:08;;;;;;;3.83;0.60;;;;;;;10.47;44.51;97176.97;10008596;29;20057;-76
2022/02/02 13:13:30;;;;;;;3.60;0.40;;;;;;;10.14;45.13;97191.06;10031626;29;20058;-75
2022/02/02 13:18:55;;;;;;;1.63;0.50;;;;;;;9.64;45.00;97190.13;10032065;29;20453;-76
2022/02/02 13:24:20;;;;;;;3.80;0.60;;;;;;;9.26;45.54;97213.50;9996674;29;20056;-76
2022/02/02 13:29:51;;;;;;;4.22;0.70;;;;;;;9.85;45.20;97220.00;9993913;29;20541;-77
2022/02/02 13:57:43;;;;;;;3.80;0.65;;;;;;;8.54;46.17;97285.31;9940931;29;20066;-75
2022/02/02 14:36:50;;;;;;;3.72;0.80;;;;;;;7.88;45.58;97354.38;9980363;29;20526;-75
2022/02/02 14:42:17;;;;;;;5.30;0.60;;;;;;;7.62;44.22;97348.41;10000441;29;20041;-75
2022/02/02 14:47:43;;;;;;;3.05;0.60;;;;;;;7.22;44.25;97360.06;10017032;29;20533;-75
2022/02/02 14:53:19;;;;;;;8.00;0.80;;;;;;;6.93;44.82;97373.13;10001200;29;20084;-75
2022/02/02 15:32:30;;;;;;;5.60;0.70;;;;;;;5.83;47.67;97476.19;10037187;29;20045;-78
2022/02/02 16:05:29;;;;;;;4.43;0.80;;;;;;;4.91;51.01;97536.31;10037957;29;20061;-78
2022/02/02 16:11:05;;;;;;;6.93;0.90;;;;;;;5.08;50.87;97556.50;10023940;29;20052;-76
2022/02/02 16:16:43;;;;;;;4.28;0.68;;;;;;;5.25;51.53;97560.66;10031594;29;20030;-82
2022/02/02 16:39:20;;;;;;;4.60;0.82;;;;;;;4.79;52.10;97633.53;10039500;29;20065;-80
2022/02/02 16:44:41;;;;;;;5.10;0.85;;;;;;;4.62;52.85;97632.66;10013398;29;20097;-79
2022/02/02 16:50:03;;;;;;;5.78;0.90;;;;;;;4.61;53.13;97629.16;10022345;29;20052;-81
2022/02/02 16:55:51;;;;;;;4.00;1.10;;;;;;;4.67;52.96;97651.81;10055789;29;20053;-81
2022/02/02 17:40:57;;;;;;;4.78;1.10;;;;;;;4.46;53.53;97723.19;10036546;29;20069;-79
2022/02/02 18:19:56;;;;;;;6.30;1.20;;;;;;;4.84;53.17;97783.97;9797735;30;20484;-79
2022/02/02 18:25:27;;;;;;;5.25;0.90;;;;;;;4.61;53.71;97795.03;9816803;30;20423;-78
2022/02/02 18:36:37;;;;;;;6.93;0.85;;;;;;;4.26;54.67;97821.56;9805606;30;20124;-78
2022/02/02 18:59:32;;;;;;;6.20;1.15;;;;;;;3.77;55.51;97838.38;9849975;30;20064;-79
2022/02/02 19:39:23;;;;;;;5.03;1.10;;;;;;;4.02;55.50;97875.28;9850577;30;20391;-78
2022/02/02 19:55:40;;;;;;;8.43;3.00;;;;;;;3.74;55.89;97901.66;9875563;30;20114;-78
2022/02/02 20:06:49;;;;;;;4.60;1.25;;;;;;;3.75;55.17;97913.44;9871644;30;20043;-78
2022/02/02 20:12:11;;;;;;;2.88;1.10;;;;;;;3.76;56.13;97914.19;9862440;30;20063;-78
2022/02/02 20:17:34;;;;;;;7.82;1.10;;;;;;;3.78;56.08;97919.94;9873398;30;20048;-78
2022/02/02 20:23:01;;;;;;;5.70;1.17;;;;;;;3.78;56.25;97933.72;9885745;30;20105;-77
2022/02/02 20:28:24;;;;;;;4.55;0.95;;;;;;;3.87;55.99;97941.50;9884826;30;20059;-78
2022/02/02 20:33:45;;;;;;;6.03;1.33;;;;;;;4.01;56.00;97940.09;9886104;30;20135;-78
2022/02/02 20:39:11;;;;;;;5.80;1.38;;;;;;;4.16;55.86;97950.50;9885281;30;20446;-79
2022/02/02 20:45:31;;;;;;;3.83;0.93;;;;;;;4.22;56.14;97935.22;9884446;30;20051;-78
2022/02/02 21:18:17;;;;;;;3.60;0.47;;;;;;;4.38;55.27;97976.72;9869112;30;20047;-81
2022/02/02 21:24:06;;;;;;;2.33;0.47;;;;;;;4.39;55.25;97972.66;9857111;30;20411;-81
2022/02/02 21:29:18;;;;;;;5.15;0.70;;;;;;;4.34;55.22;97981.84;9879684;30;20096;-81
2022/02/02 21:34:39;;;;;;;5.97;0.80;;;;;;;4.39;55.20;97987.22;9882107;30;20063;-81
2022/02/02 21:46:24;;;;;;;4.60;0.77;;;;;;;4.39;55.45;97989.25;9862506;30;20142;-80
2022/02/02 21:52:03;;;;;;;6.93;1.15;;;;;;;4.36;54.99;97991.09;9876892;30;20108;-80
2022/02/02 21:57:23;;;;;;;5.55;0.80;;;;;;;4.32;55.00;97999.00;9837920;30;20052;-79
2022/02/02 22:02:45;;;;;;;3.80;0.70;;;;;;;4.19;55.10;98010.91;9858702;30;20048;-80
2022/02/02 22:08:08;;;;;;;4.72;0.70;;;;;;;4.07;55.25;98012.50;9808976;30;20106;-80
2022/02/02 22:13:39;;;;;;;3.75;0.60;;;;;;;4.06;55.14;98011.03;9811633;30;20055;-80
2022/02/02 22:18:59;;;;;;;5.68;1.40;;;;;;;4.05;55.28;98020.59;9785980;30;20091;-79
2022/02/02 22:24:21;;;;;;;4.90;0.88;;;;;;;4.10;55.12;98028.00;9795089;30;20508;-79
2022/02/02 22:29:45;;;;;;;7.03;1.25;;;;;;;4.14;55.12;98036.66;9782949;30;20064;-79
2022/02/02 22:35:06;;;;;;;6.28;1.42;;;;;;;4.12;55.15;98038.50;9771945;30;20056;-79
2022/02/02 22:40:27;;;;;;;4.28;1.20;;;;;;;4.16;55.15;98055.47;9783852;30;20053;-79
2022/02/02 22:45:51;;;;;;;6.50;0.80;;;;;;;4.19;55.18;98060.66;9819724;30;20065;-79
2022/02/02 22:51:12;;;;;;;5.88;1.20;;;;;;;4.17;55.19;98063.22;9820650;30;20055;-79
2022/02/02 22:56:33;;;;;;;5.93;1.05;;;;;;;4.16;55.12;98067.28;9832205;30;20071;-79
2022/02/02 23:02:01;;;;;;;3.60;0.60;;;;;;;4.13;55.36;98065.56;9845057;30;20056;-79
2022/02/02 23:07:22;;;;;;;6.15;0.80;;;;;;;4.04;55.65;98055.03;9834450;30;20404;-79
2022/02/02 23:12:43;;;;;;;6.30;0.85;;;;;;;4.00;55.91;98060.91;9838749;30;20048;-79
2022/02/02 23:18:14;;;;;;;7.03;0.80;;;;;;;4.01;55.19;98076.19;9838820;30;20060;-79
2022/02/02 23:23:43;;;;;;;5.50;1.00;;;;;;;4.00;55.71;98088.53;9827246;30;20048;-79
2022/02/02 23:29:05;;;;;;;6.32;0.70;;;;;;;4.09;55.29;98078.28;9826419;30;20106;-79
2022/02/02 23:34:26;;;;;;;4.35;0.85;;;;;;;4.13;55.56;98095.22;9838445;30;20048;-79
2022/02/02 23:39:46;;;;;;;3.75;0.80;;;;;;;4.17;55.24;98106.69;9838093;30;20059;-79
2022/02/02 23:45:08;;;;;;;5.88;1.00;;;;;;;4.16;55.91;98111.47;9850110;30;20485;-79
2022/02/02 23:50:29;;;;;;;4.55;0.73;;;;;;;4.11;55.36;98112.34;9825269;30;20048;-79
2022/02/02 23:55:58;;;;;;;3.20;0.75;;;;;;;4.10;55.71;98118.41;9837283;30;20484;-79
